sensor_id;sensor_type;location;lat;lon;timestamp;P1;durP1;ratioP1;P2;durP2;ratioP2
4585;SDS011;2305;50.118;8.952;2023-04-24T00:01:33;2.23;;;1.23;;
4585;SDS011;2305;50.118;8.952;2023-04-24T00:04:03;3.97;;;1.00;;
4585;SDS011;2305;50.118;8.952;2023-04-24T00:06:33;2.37;;;1.20;;
4585;SDS011;2305;50.118;8.952;2023-04-24T00:09:04;1.53;;;1.07;;
4585;SDS011;2305;50.118;8.952;2023-04-24T00:11:32;1.33;;;1.10;;
4585;SDS011;2305;50.118;8.952;2023-04-24T00:14:00;2.50;;;1.10;;
4585;SDS011;2305;50.118;8.952;2023-04-24T00:16:30;1.13;;;0.90;;
4585;SDS011;2305;50.118;8.952;2023-04-24T00:19:00;1.97;;;1.20;;
4585;SDS011;2305;50.118;8.952;2023-04-24T00:21:28;3.07;;;1.30;;
4585;SDS011;2305;50.118;8.952;2023-04-24T00:24:00;1.67;;;1.20;;
4585;SDS011;2305;50.118;8.952;2023-04-24T00:26:32;1.97;;;1.10;;
4585;SDS011;2305;50.118;8.952;2023-04-24T00:29:04;3.27;;;1.10;;
4585;SDS011;2305;50.118;8.952;2023-04-24T00:31:32;3.27;;;1.50;;
4585;SDS011;2305;50.118;8.952;2023-04-24T00:34:01;2.83;;;1.37;;
4585;SDS011;2305;50.118;8.952;2023-04-24T00:36:31;1.73;;;1.10;;
4585;SDS011;2305;50.118;8.952;2023-04-24T00:39:03;5.70;;;1.20;;
4585;SDS011;2305;50.118;8.952;2023-04-24T00:41:31;2.23;;;1.40;;
4585;SDS011;2305;50.118;8.952;2023-04-24T00:44:02;5.23;;;1.23;;
4585;SDS011;2305;50.118;8.952;2023-04-24T00:46:30;1.47;;;1.10;;
4585;SDS011;2305;50.118;8.952;2023-04-24T00:48:59;2.00;;;1.40;;
4585;SDS011;2305;50.118;8.952;2023-04-24T00:51:30;2.30;;;1.20;;
4585;SDS011;2305;50.118;8.952;2023-04-24T00:54:05;2.40;;;1.07;;
4585;SDS011;2305;50.118;8.952;2023-04-24T00:56:35;2.23;;;1.30;;
4585;SDS011;2305;50.118;8.952;2023-04-24T00:59:09;1.30;;;1.00;;
4585;SDS011;2305;50.118;8.952;2023-04-24T01:01:39;2.20;;;1.17;;
4585;SDS011;2305;50.118;8.952;2023-04-24T01:04:09;2.13;;;1.10;;
4585;SDS011;2305;50.118;8.952;2023-04-24T01:06:42;3.87;;;1.40;;
4585;SDS011;2305;50.118;8.952;2023-04-24T01:09:13;1.57;;;1.07;;
4585;SDS011;2305;50.118;8.952;2023-04-24T01:11:45;2.17;;;1.10;;
4585;SDS011;2305;50.118;8.952;2023-04-24T01:14:13;3.77;;;1.30;;
4585;SDS011;2305;50.118;8.952;2023-04-24T01:16:41;1.93;;;1.10;;
4585;SDS011;2305;50.118;8.952;2023-04-24T01:19:10;3.53;;;1.50;;
4585;SDS011;2305;50.118;8.952;2023-04-24T01:21:38;2.97;;;1.00;;
4585;SDS011;2305;50.118;8.952;2023-04-24T01:24:10;2.43;;;1.23;;
4585;SDS011;2305;50.118;8.952;2023-04-24T01:26:38;1.93;;;1.33;;
4585;SDS011;2305;50.118;8.952;2023-04-24T01:29:06;2.30;;;1.40;;
4585;SDS011;2305;50.118;8.952;2023-04-24T01:31:35;3.63;;;1.40;;
4585;SDS011;2305;50.118;8.952;2023-04-24T01:34:05;3.00;;;1.10;;
4585;SDS011;2305;50.118;8.952;2023-04-24T01:36:36;2.03;;;1.20;;
4585;SDS011;2305;50.118;8.952;2023-04-24T01:39:09;3.50;;;1.20;;
4585;SDS011;2305;50.118;8.952;2023-04-24T01:41:37;1.60;;;1.10;;
4585;SDS011;2305;50.118;8.952;2023-04-24T01:44:09;4.50;;;1.33;;
4585;SDS011;2305;50.118;8.952;2023-04-24T01:46:38;2.77;;;1.20;;
4585;SDS011;2305;50.118;8.952;2023-04-24T01:49:08;1.37;;;1.10;;
4585;SDS011;2305;50.118;8.952;2023-04-24T01:51:37;2.17;;;1.20;;
4585;SDS011;2305;50.118;8.952;2023-04-24T01:54:05;1.50;;;1.10;;
4585;SDS011;2305;50.118;8.952;2023-04-24T01:56:37;2.60;;;1.13;;
4585;SDS011;2305;50.118;8.952;2023-04-24T01:59:11;1.80;;;1.07;;
4585;SDS011;2305;50.118;8.952;2023-04-24T02:01:40;2.60;;;1.60;;
4585;SDS011;2305;50.118;8.952;2023-04-24T02:04:09;1.70;;;1.00;;
4585;SDS011;2305;50.118;8.952;2023-04-24T02:06:38;2.10;;;1.17;;
4585;SDS011;2305;50.118;8.952;2023-04-24T02:09:06;2.10;;;1.07;;
4585;SDS011;2305;50.118;8.952;2023-04-24T02:11:36;1.50;;;1.10;;
4585;SDS011;2305;50.118;8.952;2023-04-24T02:14:08;1.40;;;1.10;;
4585;SDS011;2305;50.118;8.952;2023-04-24T02:16:39;4.23;;;1.13;;
4585;SDS011;2305;50.118;8.952;2023-04-24T02:19:07;1.50;;;1.17;;
4585;SDS011;2305;50.118;8.952;2023-04-24T02:21:36;1.20;;;1.00;;
4585;SDS011;2305;50.118;8.952;2023-04-24T02:24:04;3.23;;;1.10;;
4585;SDS011;2305;50.118;8.952;2023-04-24T02:26:33;5.83;;;1.23;;
4585;SDS011;2305;50.118;8.952;2023-04-24T02:29:03;4.57;;;1.43;;
4585;SDS011;2305;50.118;8.952;2023-04-24T02:31:32;3.63;;;1.10;;
4585;SDS011;2305;50.118;8.952;2023-04-24T02:34:05;2.10;;;1.20;;
4585;SDS011;2305;50.118;8.952;2023-04-24T02:36:33;1.70;;;1.17;;
4585;SDS011;2305;50.118;8.952;2023-04-24T02:39:02;3.23;;;1.10;;
4585;SDS011;2305;50.118;8.952;2023-04-24T02:41:32;3.60;;;1.23;;
4585;SDS011;2305;50.118;8.952;2023-04-24T02:44:04;1.63;;;1.03;;
4585;SDS011;2305;50.118;8.952;2023-04-24T02:46:32;1.20;;;1.00;;
4585;SDS011;2305;50.118;8.952;2023-04-24T02:49:00;3.37;;;1.30;;
4585;SDS011;2305;50.118;8.952;2023-04-24T02:51:29;1.10;;;1.00;;
4585;SDS011;2305;50.118;8.952;2023-04-24T02:54:00;2.40;;;1.10;;
4585;SDS011;2305;50.118;8.952;2023-04-24T02:56:28;2.33;;;1.10;;
4585;SDS011;2305;50.118;8.952;2023-04-24T02:58:58;1.37;;;1.27;;
4585;SDS011;2305;50.118;8.952;2023-04-24T03:01:28;3.33;;;1.17;;
4585;SDS011;2305;50.118;8.952;2023-04-24T03:03:59;3.33;;;0.90;;
4585;SDS011;2305;50.118;8.952;2023-04-24T03:06:29;2.30;;;1.13;;
4585;SDS011;2305;50.118;8.952;2023-04-24T03:09:00;2.00;;;1.13;;
4585;SDS011;2305;50.118;8.952;2023-04-24T03:11:28;2.13;;;0.90;;
4585;SDS011;2305;50.118;8.952;2023-04-24T03:13:57;2.00;;;1.13;;
4585;SDS011;2305;50.118;8.952;2023-04-24T03:16:29;2.47;;;1.20;;
4585;SDS011;2305;50.118;8.952;2023-04-24T03:18:57;1.30;;;1.00;;
4585;SDS011;2305;50.118;8.952;2023-04-24T03:21:32;1.67;;;1.00;;
4585;SDS011;2305;50.118;8.952;2023-04-24T03:24:02;3.47;;;1.33;;
4585;SDS011;2305;50.118;8.952;2023-04-24T03:26:31;1.70;;;0.90;;
4585;SDS011;2305;50.118;8.952;2023-04-24T03:29:14;5.60;;;1.00;;
4585;SDS011;2305;50.118;8.952;2023-04-24T03:31:44;1.80;;;1.10;;
4585;SDS011;2305;50.118;8.952;2023-04-24T03:34:12;2.27;;;1.00;;
4585;SDS011;2305;50.118;8.952;2023-04-24T03:36:40;2.40;;;1.30;;
4585;SDS011;2305;50.118;8.952;2023-04-24T03:39:10;4.20;;;1.03;;
4585;SDS011;2305;50.118;8.952;2023-04-24T03:41:44;3.57;;;1.00;;
4585;SDS011;2305;50.118;8.952;2023-04-24T03:44:17;2.20;;;1.17;;
4585;SDS011;2305;50.118;8.952;2023-04-24T03:46:47;3.53;;;1.20;;
4585;SDS011;2305;50.118;8.952;2023-04-24T03:49:15;1.20;;;0.93;;
4585;SDS011;2305;50.118;8.952;2023-04-24T03:51:46;1.83;;;1.40;;
4585;SDS011;2305;50.118;8.952;2023-04-24T03:54:18;2.03;;;1.43;;
4585;SDS011;2305;50.118;8.952;2023-04-24T03:56:49;4.10;;;1.03;;
4585;SDS011;2305;50.118;8.952;2023-04-24T03:59:18;2.10;;;1.10;;
4585;SDS011;2305;50.118;8.952;2023-04-24T04:01:58;5.70;;;1.40;;
4585;SDS011;2305;50.118;8.952;2023-04-24T04:04:27;6.20;;;1.60;;
4585;SDS011;2305;50.118;8.952;2023-04-24T04:06:55;1.33;;;1.00;;
4585;SDS011;2305;50.118;8.952;2023-04-24T04:09:27;3.40;;;1.40;;
4585;SDS011;2305;50.118;8.952;2023-04-24T04:11:55;2.70;;;1.30;;
4585;SDS011;2305;50.118;8.952;2023-04-24T04:14:24;1.67;;;1.10;;
4585;SDS011;2305;50.118;8.952;2023-04-24T04:16:52;1.40;;;1.20;;
4585;SDS011;2305;50.118;8.952;2023-04-24T04:19:22;2.60;;;1.10;;
4585;SDS011;2305;50.118;8.952;2023-04-24T04:21:52;1.20;;;1.10;;
4585;SDS011;2305;50.118;8.952;2023-04-24T04:24:31;2.87;;;1.47;;
4585;SDS011;2305;50.118;8.952;2023-04-24T04:27:00;1.20;;;1.10;;
4585;SDS011;2305;50.118;8.952;2023-04-24T04:29:32;2.73;;;1.37;;
4585;SDS011;2305;50.118;8.952;2023-04-24T04:32:05;2.53;;;1.30;;
4585;SDS011;2305;50.118;8.952;2023-04-24T04:34:37;3.10;;;2.00;;
4585;SDS011;2305;50.118;8.952;2023-04-24T04:37:07;2.70;;;1.63;;
4585;SDS011;2305;50.118;8.952;2023-04-24T04:39:52;4.30;;;1.50;;
4585;SDS011;2305;50.118;8.952;2023-04-24T04:42:24;5.53;;;1.77;;
4585;SDS011;2305;50.118;8.952;2023-04-24T04:44:52;2.47;;;1.30;;
4585;SDS011;2305;50.118;8.952;2023-04-24T04:47:27;3.43;;;1.50;;
4585;SDS011;2305;50.118;8.952;2023-04-24T04:50:00;2.90;;;1.50;;
4585;SDS011;2305;50.118;8.952;2023-04-24T04:52:31;2.23;;;1.30;;
4585;SDS011;2305;50.118;8.952;2023-04-24T04:55:10;2.53;;;1.43;;
4585;SDS011;2305;50.118;8.952;2023-04-24T04:58:06;1.47;;;1.00;;
4585;SDS011;2305;50.118;8.952;2023-04-24T05:00:33;4.00;;;1.50;;
4585;SDS011;2305;50.118;8.952;2023-04-24T05:03:13;4.20;;;1.37;;
4585;SDS011;2305;50.118;8.952;2023-04-24T05:05:45;1.50;;;1.20;;
4585;SDS011;2305;50.118;8.952;2023-04-24T05:08:17;5.67;;;1.53;;
4585;SDS011;2305;50.118;8.952;2023-04-24T05:10:53;1.50;;;1.30;;
4585;SDS011;2305;50.118;8.952;2023-04-24T05:13:24;4.13;;;1.30;;
4585;SDS011;2305;50.118;8.952;2023-04-24T05:16:12;2.50;;;1.37;;
4585;SDS011;2305;50.118;8.952;2023-04-24T05:18:40;7.50;;;1.80;;
4585;SDS011;2305;50.118;8.952;2023-04-24T05:21:13;5.63;;;1.50;;
4585;SDS011;2305;50.118;8.952;2023-04-24T05:23:44;2.10;;;1.27;;
4585;SDS011;2305;50.118;8.952;2023-04-24T05:26:16;1.93;;;1.60;;
4585;SDS011;2305;50.118;8.952;2023-04-24T05:28:44;4.10;;;1.47;;
4585;SDS011;2305;50.118;8.952;2023-04-24T05:31:12;2.07;;;1.40;;
4585;SDS011;2305;50.118;8.952;2023-04-24T05:33:41;2.03;;;1.50;;
4585;SDS011;2305;50.118;8.952;2023-04-24T05:36:10;4.27;;;1.60;;
4585;SDS011;2305;50.118;8.952;2023-04-24T05:38:39;2.03;;;1.70;;
4585;SDS011;2305;50.118;8.952;2023-04-24T05:41:07;2.20;;;1.40;;
4585;SDS011;2305;50.118;8.952;2023-04-24T05:43:35;3.10;;;1.20;;
4585;SDS011;2305;50.118;8.952;2023-04-24T05:46:03;1.67;;;1.40;;
4585;SDS011;2305;50.118;8.952;2023-04-24T05:48:31;1.60;;;1.50;;
4585;SDS011;2305;50.118;8.952;2023-04-24T05:51:01;2.17;;;1.57;;
4585;SDS011;2305;50.118;8.952;2023-04-24T05:53:29;2.00;;;1.70;;
4585;SDS011;2305;50.118;8.952;2023-04-24T05:55:58;2.93;;;1.40;;
4585;SDS011;2305;50.118;8.952;2023-04-24T05:58:26;2.70;;;1.57;;
4585;SDS011;2305;50.118;8.952;2023-04-24T06:00:54;2.00;;;1.37;;
4585;SDS011;2305;50.118;8.952;2023-04-24T06:03:24;2.93;;;1.50;;
4585;SDS011;2305;50.118;8.952;2023-04-24T06:05:53;6.67;;;1.43;;
4585;SDS011;2305;50.118;8.952;2023-04-24T06:08:24;3.27;;;1.50;;
4585;SDS011;2305;50.118;8.952;2023-04-24T06:10:55;5.23;;;1.77;;
4585;SDS011;2305;50.118;8.952;2023-04-24T06:13:25;2.03;;;1.47;;
4585;SDS011;2305;50.118;8.952;2023-04-24T06:16:13;2.10;;;1.77;;
4585;SDS011;2305;50.118;8.952;2023-04-24T06:18:46;1.40;;;1.30;;
4585;SDS011;2305;50.118;8.952;2023-04-24T06:21:16;3.07;;;2.00;;
4585;SDS011;2305;50.118;8.952;2023-04-24T06:23:44;4.17;;;1.60;;
4585;SDS011;2305;50.118;8.952;2023-04-24T06:26:14;3.10;;;1.87;;
4585;SDS011;2305;50.118;8.952;2023-04-24T06:28:43;3.67;;;1.53;;
4585;SDS011;2305;50.118;8.952;2023-04-24T06:31:11;2.33;;;1.50;;
4585;SDS011;2305;50.118;8.952;2023-04-24T06:33:42;2.13;;;1.60;;
4585;SDS011;2305;50.118;8.952;2023-04-24T06:36:10;1.97;;;1.40;;
4585;SDS011;2305;50.118;8.952;2023-04-24T06:38:39;5.57;;;2.03;;
4585;SDS011;2305;50.118;8.952;2023-04-24T06:41:07;2.40;;;1.43;;
4585;SDS011;2305;50.118;8.952;2023-04-24T06:43:35;6.30;;;1.70;;
4585;SDS011;2305;50.118;8.952;2023-04-24T06:46:09;2.93;;;2.00;;
4585;SDS011;2305;50.118;8.952;2023-04-24T06:48:37;4.00;;;2.07;;
4585;SDS011;2305;50.118;8.952;2023-04-24T06:51:05;2.90;;;1.53;;
4585;SDS011;2305;50.118;8.952;2023-04-24T06:53:34;4.30;;;1.60;;
4585;SDS011;2305;50.118;8.952;2023-04-24T06:56:02;2.13;;;1.80;;
4585;SDS011;2305;50.118;8.952;2023-04-24T06:58:30;5.33;;;2.00;;
4585;SDS011;2305;50.118;8.952;2023-04-24T07:00:58;3.20;;;1.97;;
4585;SDS011;2305;50.118;8.952;2023-04-24T07:03:28;3.63;;;2.10;;
4585;SDS011;2305;50.118;8.952;2023-04-24T07:05:57;6.53;;;2.10;;
4585;SDS011;2305;50.118;8.952;2023-04-24T07:08:25;4.63;;;2.20;;
4585;SDS011;2305;50.118;8.952;2023-04-24T07:10:53;3.30;;;2.73;;
4585;SDS011;2305;50.118;8.952;2023-04-24T07:13:23;2.50;;;1.70;;
4585;SDS011;2305;50.118;8.952;2023-04-24T07:15:51;2.70;;;1.97;;
4585;SDS011;2305;50.118;8.952;2023-04-24T07:18:20;2.57;;;1.90;;
4585;SDS011;2305;50.118;8.952;2023-04-24T07:20:51;5.97;;;1.70;;
4585;SDS011;2305;50.118;8.952;2023-04-24T07:23:20;5.20;;;2.10;;
4585;SDS011;2305;50.118;8.952;2023-04-24T07:25:50;3.10;;;1.53;;
4585;SDS011;2305;50.118;8.952;2023-04-24T07:28:18;8.03;;;2.00;;
4585;SDS011;2305;50.118;8.952;2023-04-24T07:30:46;3.03;;;1.87;;
4585;SDS011;2305;50.118;8.952;2023-04-24T07:33:15;4.10;;;1.87;;
4585;SDS011;2305;50.118;8.952;2023-04-24T07:35:43;2.37;;;2.10;;
4585;SDS011;2305;50.118;8.952;2023-04-24T07:38:12;3.13;;;2.07;;
4585;SDS011;2305;50.118;8.952;2023-04-24T07:40:41;3.40;;;1.97;;
4585;SDS011;2305;50.118;8.952;2023-04-24T07:43:09;13.53;;;2.37;;
4585;SDS011;2305;50.118;8.952;2023-04-24T07:45:45;8.13;;;2.20;;
4585;SDS011;2305;50.118;8.952;2023-04-24T07:48:19;4.50;;;1.70;;
4585;SDS011;2305;50.118;8.952;2023-04-24T07:50:48;7.23;;;2.07;;
4585;SDS011;2305;50.118;8.952;2023-04-24T07:53:18;2.30;;;1.50;;
4585;SDS011;2305;50.118;8.952;2023-04-24T07:55:46;7.73;;;2.27;;
4585;SDS011;2305;50.118;8.952;2023-04-24T07:58:14;25.20;;;1.93;;
4585;SDS011;2305;50.118;8.952;2023-04-24T08:00:42;2.63;;;1.60;;
4585;SDS011;2305;50.118;8.952;2023-04-24T08:03:10;16.83;;;2.67;;
4585;SDS011;2305;50.118;8.952;2023-04-24T08:05:39;4.80;;;1.67;;
4585;SDS011;2305;50.118;8.952;2023-04-24T08:08:10;2.67;;;2.00;;
4585;SDS011;2305;50.118;8.952;2023-04-24T08:10:39;4.33;;;1.77;;
4585;SDS011;2305;50.118;8.952;2023-04-24T08:13:07;2.00;;;1.60;;
4585;SDS011;2305;50.118;8.952;2023-04-24T08:15:38;1.90;;;1.70;;
4585;SDS011;2305;50.118;8.952;2023-04-24T08:18:06;3.57;;;1.60;;
4585;SDS011;2305;50.118;8.952;2023-04-24T08:20:35;3.47;;;2.07;;
4585;SDS011;2305;50.118;8.952;2023-04-24T08:23:03;2.40;;;1.80;;
4585;SDS011;2305;50.118;8.952;2023-04-24T08:25:31;3.53;;;1.87;;
4585;SDS011;2305;50.118;8.952;2023-04-24T08:28:05;1.70;;;1.57;;
4585;SDS011;2305;50.118;8.952;2023-04-24T08:30:36;4.20;;;2.60;;
4585;SDS011;2305;50.118;8.952;2023-04-24T08:33:05;5.13;;;2.27;;
4585;SDS011;2305;50.118;8.952;2023-04-24T08:35:34;11.73;;;2.43;;
4585;SDS011;2305;50.118;8.952;2023-04-24T08:38:02;2.30;;;1.57;;
4585;SDS011;2305;50.118;8.952;2023-04-24T08:40:32;6.73;;;2.00;;
4585;SDS011;2305;50.118;8.952;2023-04-24T08:43:09;2.10;;;1.87;;
4585;SDS011;2305;50.118;8.952;2023-04-24T08:45:38;7.73;;;2.20;;
4585;SDS011;2305;50.118;8.952;2023-04-24T08:48:09;13.47;;;2.40;;
4585;SDS011;2305;50.118;8.952;2023-04-24T08:50:58;2.13;;;1.93;;
4585;SDS011;2305;50.118;8.952;2023-04-24T08:53:27;6.50;;;2.37;;
4585;SDS011;2305;50.118;8.952;2023-04-24T08:55:57;16.17;;;2.20;;
4585;SDS011;2305;50.118;8.952;2023-04-24T08:58:29;3.80;;;2.13;;
4585;SDS011;2305;50.118;8.952;2023-04-24T09:00:59;14.73;;;1.97;;
4585;SDS011;2305;50.118;8.952;2023-04-24T09:03:28;8.30;;;1.93;;
4585;SDS011;2305;50.118;8.952;2023-04-24T09:05:57;6.60;;;2.50;;
4585;SDS011;2305;50.118;8.952;2023-04-24T09:08:26;9.40;;;2.20;;
4585;SDS011;2305;50.118;8.952;2023-04-24T09:10:57;15.07;;;1.80;;
4585;SDS011;2305;50.118;8.952;2023-04-24T09:13:29;7.33;;;2.37;;
4585;SDS011;2305;50.118;8.952;2023-04-24T09:15:59;9.53;;;1.60;;
4585;SDS011;2305;50.118;8.952;2023-04-24T09:18:29;7.53;;;2.13;;
4585;SDS011;2305;50.118;8.952;2023-04-24T09:21:00;4.13;;;1.73;;
4585;SDS011;2305;50.118;8.952;2023-04-24T09:23:29;13.93;;;1.97;;
4585;SDS011;2305;50.118;8.952;2023-04-24T09:26:01;26.30;;;5.40;;
4585;SDS011;2305;50.118;8.952;2023-04-24T09:28:34;7.57;;;2.40;;
4585;SDS011;2305;50.118;8.952;2023-04-24T09:31:04;4.87;;;2.27;;
4585;SDS011;2305;50.118;8.952;2023-04-24T09:33:35;2.70;;;1.53;;
4585;SDS011;2305;50.118;8.952;2023-04-24T09:36:04;5.87;;;1.80;;
4585;SDS011;2305;50.118;8.952;2023-04-24T09:38:34;3.30;;;1.73;;
4585;SDS011;2305;50.118;8.952;2023-04-24T09:41:06;13.53;;;1.97;;
4585;SDS011;2305;50.118;8.952;2023-04-24T09:43:37;13.03;;;2.07;;
4585;SDS011;2305;50.118;8.952;2023-04-24T09:46:06;8.70;;;2.10;;
4585;SDS011;2305;50.118;8.952;2023-04-24T09:48:37;7.00;;;2.10;;
4585;SDS011;2305;50.118;8.952;2023-04-24T09:51:06;13.93;;;2.63;;
4585;SDS011;2305;50.118;8.952;2023-04-24T09:53:38;4.23;;;1.83;;
4585;SDS011;2305;50.118;8.952;2023-04-24T09:56:15;6.43;;;1.67;;
4585;SDS011;2305;50.118;8.952;2023-04-24T09:58:45;2.27;;;1.80;;
4585;SDS011;2305;50.118;8.952;2023-04-24T10:01:14;8.63;;;2.00;;
4585;SDS011;2305;50.118;8.952;2023-04-24T10:03:43;2.40;;;1.70;;
4585;SDS011;2305;50.118;8.952;2023-04-24T10:06:12;4.53;;;1.40;;
4585;SDS011;2305;50.118;8.952;2023-04-24T10:08:43;2.60;;;1.70;;
4585;SDS011;2305;50.118;8.952;2023-04-24T10:11:12;6.40;;;2.10;;
4585;SDS011;2305;50.118;8.952;2023-04-24T10:13:44;5.70;;;1.80;;
4585;SDS011;2305;50.118;8.952;2023-04-24T10:16:14;2.30;;;1.57;;
4585;SDS011;2305;50.118;8.952;2023-04-24T10:18:43;2.10;;;1.60;;
4585;SDS011;2305;50.118;8.952;2023-04-24T10:21:13;7.67;;;1.80;;
4585;SDS011;2305;50.118;8.952;2023-04-24T10:23:43;6.33;;;1.73;;
4585;SDS011;2305;50.118;8.952;2023-04-24T10:26:13;4.10;;;1.33;;
4585;SDS011;2305;50.118;8.952;2023-04-24T10:28:46;1.67;;;1.40;;
4585;SDS011;2305;50.118;8.952;2023-04-24T10:31:14;2.83;;;1.70;;
4585;SDS011;2305;50.118;8.952;2023-04-24T10:33:46;1.90;;;1.40;;
4585;SDS011;2305;50.118;8.952;2023-04-24T10:36:15;2.90;;;1.70;;
4585;SDS011;2305;50.118;8.952;2023-04-24T10:38:45;2.53;;;1.20;;
4585;SDS011;2305;50.118;8.952;2023-04-24T10:41:18;2.80;;;1.73;;
4585;SDS011;2305;50.118;8.952;2023-04-24T10:44:05;1.30;;;1.20;;
4585;SDS011;2305;50.118;8.952;2023-04-24T10:46:37;10.83;;;1.30;;
4585;SDS011;2305;50.118;8.952;2023-04-24T10:49:07;1.20;;;1.10;;
4585;SDS011;2305;50.118;8.952;2023-04-24T10:51:46;2.90;;;1.67;;
4585;SDS011;2305;50.118;8.952;2023-04-24T10:54:26;1.30;;;1.20;;
4585;SDS011;2305;50.118;8.952;2023-04-24T11:00:24;13.33;;;2.20;;
4585;SDS011;2305;50.118;8.952;2023-04-24T11:02:54;4.90;;;1.50;;
4585;SDS011;2305;50.118;8.952;2023-04-24T11:08:25;4.87;;;1.80;;
4585;SDS011;2305;50.118;8.952;2023-04-24T11:10:57;5.43;;;2.77;;
4585;SDS011;2305;50.118;8.952;2023-04-24T11:13:27;10.83;;;2.33;;
4585;SDS011;2305;50.118;8.952;2023-04-24T11:16:21;12.63;;;1.50;;
4585;SDS011;2305;50.118;8.952;2023-04-24T11:19:00;6.57;;;1.50;;
4585;SDS011;2305;50.118;8.952;2023-04-24T11:21:32;1.63;;;1.30;;
4585;SDS011;2305;50.118;8.952;2023-04-24T11:24:23;13.90;;;2.70;;
4585;SDS011;2305;50.118;8.952;2023-04-24T11:26:57;5.23;;;1.83;;
4585;SDS011;2305;50.118;8.952;2023-04-24T11:29:39;1.60;;;1.40;;
4585;SDS011;2305;50.118;8.952;2023-04-24T11:32:23;1.67;;;1.20;;
4585;SDS011;2305;50.118;8.952;2023-04-24T11:34:57;1.10;;;0.93;;
4585;SDS011;2305;50.118;8.952;2023-04-24T11:37:28;1.20;;;1.10;;
4585;SDS011;2305;50.118;8.952;2023-04-24T11:40:04;12.20;;;1.90;;
4585;SDS011;2305;50.118;8.952;2023-04-24T11:42:34;2.23;;;1.43;;
4585;SDS011;2305;50.118;8.952;2023-04-24T11:45:06;1.80;;;1.40;;
4585;SDS011;2305;50.118;8.952;2023-04-24T11:47:37;10.13;;;1.97;;
4585;SDS011;2305;50.118;8.952;2023-04-24T11:50:07;14.13;;;2.70;;
4585;SDS011;2305;50.118;8.952;2023-04-24T11:52:38;10.87;;;1.93;;
4585;SDS011;2305;50.118;8.952;2023-04-24T11:55:07;4.00;;;1.87;;
4585;SDS011;2305;50.118;8.952;2023-04-24T11:57:50;1.67;;;1.30;;
4585;SDS011;2305;50.118;8.952;2023-04-24T12:00:20;1.20;;;1.10;;
4585;SDS011;2305;50.118;8.952;2023-04-24T12:02:51;1.50;;;1.40;;
4585;SDS011;2305;50.118;8.952;2023-04-24T12:05:31;3.90;;;1.30;;
4585;SDS011;2305;50.118;8.952;2023-04-24T12:08:01;1.67;;;1.30;;
4585;SDS011;2305;50.118;8.952;2023-04-24T12:10:30;15.17;;;1.50;;
4585;SDS011;2305;50.118;8.952;2023-04-24T12:12:59;2.60;;;1.33;;
4585;SDS011;2305;50.118;8.952;2023-04-24T12:15:33;2.60;;;1.20;;
4585;SDS011;2305;50.118;8.952;2023-04-24T12:18:03;1.23;;;0.93;;
4585;SDS011;2305;50.118;8.952;2023-04-24T12:20:32;1.43;;;1.03;;
4585;SDS011;2305;50.118;8.952;2023-04-24T12:23:00;6.20;;;1.70;;
4585;SDS011;2305;50.118;8.952;2023-04-24T12:25:32;1.30;;;1.10;;
4585;SDS011;2305;50.118;8.952;2023-04-24T12:28:10;6.60;;;1.60;;
4585;SDS011;2305;50.118;8.952;2023-04-24T12:30:40;1.57;;;1.10;;
4585;SDS011;2305;50.118;8.952;2023-04-24T12:33:18;3.87;;;1.60;;
4585;SDS011;2305;50.118;8.952;2023-04-24T12:35:47;1.30;;;0.93;;
4585;SDS011;2305;50.118;8.952;2023-04-24T12:38:21;2.70;;;1.00;;
4585;SDS011;2305;50.118;8.952;2023-04-24T12:41:01;4.93;;;1.00;;
4585;SDS011;2305;50.118;8.952;2023-04-24T12:43:33;1.63;;;1.13;;
4585;SDS011;2305;50.118;8.952;2023-04-24T12:46:02;4.67;;;1.27;;
4585;SDS011;2305;50.118;8.952;2023-04-24T12:48:31;7.33;;;1.70;;
4585;SDS011;2305;50.118;8.952;2023-04-24T12:51:02;1.80;;;1.20;;
4585;SDS011;2305;50.118;8.952;2023-04-24T12:53:31;4.00;;;1.47;;
4585;SDS011;2305;50.118;8.952;2023-04-24T12:55:59;1.50;;;1.17;;
4585;SDS011;2305;50.118;8.952;2023-04-24T12:58:27;2.00;;;1.23;;
4585;SDS011;2305;50.118;8.952;2023-04-24T13:00:55;1.30;;;1.20;;
4585;SDS011;2305;50.118;8.952;2023-04-24T13:03:23;1.87;;;1.10;;
4585;SDS011;2305;50.118;8.952;2023-04-24T13:05:55;2.40;;;0.90;;
4585;SDS011;2305;50.118;8.952;2023-04-24T13:08:23;2.50;;;1.40;;
4585;SDS011;2305;50.118;8.952;2023-04-24T13:10:51;1.53;;;1.43;;
4585;SDS011;2305;50.118;8.952;2023-04-24T13:13:20;3.53;;;1.30;;
4585;SDS011;2305;50.118;8.952;2023-04-24T13:15:48;3.67;;;1.43;;
4585;SDS011;2305;50.118;8.952;2023-04-24T13:18:16;6.67;;;1.30;;
4585;SDS011;2305;50.118;8.952;2023-04-24T13:20:44;11.33;;;1.77;;
4585;SDS011;2305;50.118;8.952;2023-04-24T13:23:15;9.40;;;1.80;;
4585;SDS011;2305;50.118;8.952;2023-04-24T13:25:43;2.50;;;1.50;;
4585;SDS011;2305;50.118;8.952;2023-04-24T13:28:12;4.90;;;1.57;;
4585;SDS011;2305;50.118;8.952;2023-04-24T13:30:46;2.10;;;1.53;;
4585;SDS011;2305;50.118;8.952;2023-04-24T13:33:17;2.83;;;1.53;;
4585;SDS011;2305;50.118;8.952;2023-04-24T13:35:46;6.27;;;2.27;;
4585;SDS011;2305;50.118;8.952;2023-04-24T13:38:18;3.07;;;1.63;;
4585;SDS011;2305;50.118;8.952;2023-04-24T13:40:49;3.00;;;2.00;;
4585;SDS011;2305;50.118;8.952;2023-04-24T13:43:17;1.90;;;1.70;;
4585;SDS011;2305;50.118;8.952;2023-04-24T13:45:45;3.40;;;2.03;;
4585;SDS011;2305;50.118;8.952;2023-04-24T13:48:14;3.40;;;2.43;;
4585;SDS011;2305;50.118;8.952;2023-04-24T13:50:43;5.33;;;2.60;;
4585;SDS011;2305;50.118;8.952;2023-04-24T13:53:14;5.63;;;2.53;;
4585;SDS011;2305;50.118;8.952;2023-04-24T13:55:46;3.13;;;2.07;;
4585;SDS011;2305;50.118;8.952;2023-04-24T13:58:15;3.73;;;2.43;;
4585;SDS011;2305;50.118;8.952;2023-04-24T14:00:43;2.43;;;2.23;;
4585;SDS011;2305;50.118;8.952;2023-04-24T14:03:11;5.70;;;2.30;;
4585;SDS011;2305;50.118;8.952;2023-04-24T14:05:41;3.23;;;2.20;;
4585;SDS011;2305;50.118;8.952;2023-04-24T14:08:09;3.17;;;2.40;;
4585;SDS011;2305;50.118;8.952;2023-04-24T14:10:37;3.77;;;2.73;;
4585;SDS011;2305;50.118;8.952;2023-04-24T14:13:09;5.27;;;2.83;;
4585;SDS011;2305;50.118;8.952;2023-04-24T14:15:37;5.50;;;2.43;;
4585;SDS011;2305;50.118;8.952;2023-04-24T14:18:10;5.80;;;3.50;;
4585;SDS011;2305;50.118;8.952;2023-04-24T14:20:38;9.10;;;3.47;;
4585;SDS011;2305;50.118;8.952;2023-04-24T14:23:06;7.23;;;2.20;;
4585;SDS011;2305;50.118;8.952;2023-04-24T14:25:34;5.50;;;2.60;;
4585;SDS011;2305;50.118;8.952;2023-04-24T14:28:02;6.27;;;2.40;;
4585;SDS011;2305;50.118;8.952;2023-04-24T14:30:32;5.67;;;3.20;;
4585;SDS011;2305;50.118;8.952;2023-04-24T14:33:00;5.50;;;2.87;;
4585;SDS011;2305;50.118;8.952;2023-04-24T14:35:31;8.73;;;3.50;;
4585;SDS011;2305;50.118;8.952;2023-04-24T14:38:00;7.50;;;2.83;;
4585;SDS011;2305;50.118;8.952;2023-04-24T14:40:28;5.03;;;2.73;;
4585;SDS011;2305;50.118;8.952;2023-04-24T14:43:17;3.80;;;2.77;;
4585;SDS011;2305;50.118;8.952;2023-04-24T14:45:48;2.70;;;2.47;;
4585;SDS011;2305;50.118;8.952;2023-04-24T14:48:16;4.87;;;2.23;;
4585;SDS011;2305;50.118;8.952;2023-04-24T14:50:45;2.80;;;1.80;;
4585;SDS011;2305;50.118;8.952;2023-04-24T14:53:14;5.83;;;1.90;;
4585;SDS011;2305;50.118;8.952;2023-04-24T14:55:43;3.73;;;1.80;;
4585;SDS011;2305;50.118;8.952;2023-04-24T14:58:13;5.10;;;2.27;;
4585;SDS011;2305;50.118;8.952;2023-04-24T15:00:41;3.67;;;2.20;;
4585;SDS011;2305;50.118;8.952;2023-04-24T15:03:11;4.90;;;2.10;;
4585;SDS011;2305;50.118;8.952;2023-04-24T15:05:39;3.30;;;2.30;;
4585;SDS011;2305;50.118;8.952;2023-04-24T15:08:07;4.30;;;2.40;;
4585;SDS011;2305;50.118;8.952;2023-04-24T15:10:35;3.90;;;2.00;;
4585;SDS011;2305;50.118;8.952;2023-04-24T15:13:08;3.60;;;2.80;;
4585;SDS011;2305;50.118;8.952;2023-04-24T15:15:36;7.43;;;2.53;;
4585;SDS011;2305;50.118;8.952;2023-04-24T15:18:04;3.33;;;2.00;;
4585;SDS011;2305;50.118;8.952;2023-04-24T15:20:36;5.70;;;2.50;;
4585;SDS011;2305;50.118;8.952;2023-04-24T15:23:05;3.00;;;2.27;;
4585;SDS011;2305;50.118;8.952;2023-04-24T15:25:35;2.50;;;2.03;;
4585;SDS011;2305;50.118;8.952;2023-04-24T15:28:05;6.60;;;2.43;;
4585;SDS011;2305;50.118;8.952;2023-04-24T15:30:33;3.20;;;2.23;;
4585;SDS011;2305;50.118;8.952;2023-04-24T15:33:02;2.57;;;2.10;;
4585;SDS011;2305;50.118;8.952;2023-04-24T15:35:30;7.23;;;2.90;;
4585;SDS011;2305;50.118;8.952;2023-04-24T15:38:00;4.03;;;2.30;;
4585;SDS011;2305;50.118;8.952;2023-04-24T15:40:28;4.93;;;2.90;;
4585;SDS011;2305;50.118;8.952;2023-04-24T15:42:58;4.10;;;2.50;;